sensor_id;sensor_type;location;lat;lon;timestamp;P1;durP1;ratioP1;P2;durP2;ratioP2
44165;SDS011;30476;53.468;9.826;2023-05-27T00:02:23;8.03;;;2.70;;
44165;SDS011;30476;53.468;9.826;2023-05-27T00:04:49;5.13;;;2.90;;
44165;SDS011;30476;53.468;9.826;2023-05-27T00:07:14;7.73;;;2.60;;
44165;SDS011;30476;53.468;9.826;2023-05-27T00:09:40;6.27;;;2.20;;
44165;SDS011;30476;53.468;9.826;2023-05-27T00:12:06;7.83;;;3.10;;
44165;SDS011;30476;53.468;9.826;2023-05-27T00:14:31;8.23;;;3.60;;
44165;SDS011;30476;53.468;9.826;2023-05-27T00:16:57;6.30;;;2.77;;
44165;SDS011;30476;53.468;9.826;2023-05-27T00:19:24;4.13;;;2.70;;
44165;SDS011;30476;53.468;9.826;2023-05-27T00:21:50;6.27;;;2.40;;
44165;SDS011;30476;53.468;9.826;2023-05-27T00:24:17;3.83;;;2.33;;
44165;SDS011;30476;53.468;9.826;2023-05-27T00:26:44;7.20;;;2.40;;
44165;SDS011;30476;53.468;9.826;2023-05-27T00:29:10;8.80;;;3.90;;
44165;SDS011;30476;53.468;9.826;2023-05-27T00:31:35;8.37;;;3.30;;
44165;SDS011;30476;53.468;9.826;2023-05-27T00:34:01;4.73;;;3.00;;
44165;SDS011;30476;53.468;9.826;2023-05-27T00:36:27;10.93;;;3.40;;
44165;SDS011;30476;53.468;9.826;2023-05-27T00:38:52;14.50;;;5.17;;
44165;SDS011;30476;53.468;9.826;2023-05-27T00:41:18;9.30;;;4.30;;
44165;SDS011;30476;53.468;9.826;2023-05-27T00:43:45;8.57;;;5.57;;
44165;SDS011;30476;53.468;9.826;2023-05-27T00:46:10;6.80;;;5.10;;
44165;SDS011;30476;53.468;9.826;2023-05-27T00:48:36;5.47;;;4.37;;
44165;SDS011;30476;53.468;9.826;2023-05-27T00:51:02;7.80;;;4.17;;
44165;SDS011;30476;53.468;9.826;2023-05-27T00:53:28;4.83;;;4.03;;
44165;SDS011;30476;53.468;9.826;2023-05-27T00:56:01;6.13;;;3.90;;
44165;SDS011;30476;53.468;9.826;2023-05-27T00:58:27;5.60;;;3.53;;
44165;SDS011;30476;53.468;9.826;2023-05-27T01:00:53;3.60;;;3.20;;
44165;SDS011;30476;53.468;9.826;2023-05-27T01:03:19;9.30;;;3.50;;
44165;SDS011;30476;53.468;9.826;2023-05-27T01:05:45;10.13;;;3.97;;
44165;SDS011;30476;53.468;9.826;2023-05-27T01:10:58;6.20;;;3.20;;
44165;SDS011;30476;53.468;9.826;2023-05-27T01:13:39;6.30;;;2.90;;
44165;SDS011;30476;53.468;9.826;2023-05-27T01:16:13;6.87;;;3.40;;
44165;SDS011;30476;53.468;9.826;2023-05-27T01:18:42;14.73;;;4.20;;
44165;SDS011;30476;53.468;9.826;2023-05-27T01:21:10;4.03;;;2.87;;
44165;SDS011;30476;53.468;9.826;2023-05-27T01:23:38;10.43;;;3.83;;
44165;SDS011;30476;53.468;9.826;2023-05-27T01:26:06;7.40;;;3.83;;
44165;SDS011;30476;53.468;9.826;2023-05-27T01:28:32;8.10;;;2.63;;
44165;SDS011;30476;53.468;9.826;2023-05-27T01:31:02;6.90;;;3.73;;
44165;SDS011;30476;53.468;9.826;2023-05-27T01:33:48;7.50;;;3.10;;
44165;SDS011;30476;53.468;9.826;2023-05-27T01:36:20;8.73;;;2.93;;
44165;SDS011;30476;53.468;9.826;2023-05-27T01:38:49;4.63;;;2.80;;
44165;SDS011;30476;53.468;9.826;2023-05-27T01:41:16;4.27;;;2.70;;
44165;SDS011;30476;53.468;9.826;2023-05-27T01:43:43;5.87;;;2.60;;
44165;SDS011;30476;53.468;9.826;2023-05-27T01:46:10;5.30;;;2.50;;
44165;SDS011;30476;53.468;9.826;2023-05-27T01:48:35;5.80;;;2.63;;
44165;SDS011;30476;53.468;9.826;2023-05-27T01:51:01;8.00;;;3.00;;
44165;SDS011;30476;53.468;9.826;2023-05-27T01:53:27;3.67;;;2.23;;
44165;SDS011;30476;53.468;9.826;2023-05-27T01:55:53;6.30;;;2.20;;
44165;SDS011;30476;53.468;9.826;2023-05-27T01:58:18;4.57;;;2.77;;
44165;SDS011;30476;53.468;9.826;2023-05-27T02:00:44;8.70;;;2.10;;
44165;SDS011;30476;53.468;9.826;2023-05-27T02:03:10;8.90;;;2.27;;
44165;SDS011;30476;53.468;9.826;2023-05-27T02:05:36;7.13;;;1.93;;
44165;SDS011;30476;53.468;9.826;2023-05-27T02:08:02;5.43;;;2.70;;
44165;SDS011;30476;53.468;9.826;2023-05-27T02:10:28;10.10;;;2.87;;
44165;SDS011;30476;53.468;9.826;2023-05-27T02:12:53;3.53;;;2.40;;
44165;SDS011;30476;53.468;9.826;2023-05-27T02:15:19;6.23;;;2.47;;
44165;SDS011;30476;53.468;9.826;2023-05-27T02:17:48;4.40;;;2.23;;
44165;SDS011;30476;53.468;9.826;2023-05-27T02:20:20;10.60;;;2.93;;
44165;SDS011;30476;53.468;9.826;2023-05-27T02:22:47;9.60;;;3.50;;
44165;SDS011;30476;53.468;9.826;2023-05-27T02:25:14;7.60;;;2.73;;
44165;SDS011;30476;53.468;9.826;2023-05-27T02:27:40;3.73;;;2.10;;
44165;SDS011;30476;53.468;9.826;2023-05-27T02:30:07;4.77;;;2.67;;
44165;SDS011;30476;53.468;9.826;2023-05-27T02:32:33;4.50;;;2.77;;
44165;SDS011;30476;53.468;9.826;2023-05-27T02:34:59;6.40;;;2.50;;
44165;SDS011;30476;53.468;9.826;2023-05-27T02:37:25;4.60;;;3.30;;
44165;SDS011;30476;53.468;9.826;2023-05-27T02:39:53;9.60;;;3.10;;
44165;SDS011;30476;53.468;9.826;2023-05-27T02:42:20;3.73;;;2.37;;
44165;SDS011;30476;53.468;9.826;2023-05-27T02:44:45;8.27;;;4.90;;
44165;SDS011;30476;53.468;9.826;2023-05-27T02:47:11;4.27;;;2.67;;
44165;SDS011;30476;53.468;9.826;2023-05-27T02:49:37;6.60;;;3.27;;
44165;SDS011;30476;53.468;9.826;2023-05-27T02:52:03;2.60;;;1.97;;
44165;SDS011;30476;53.468;9.826;2023-05-27T02:54:29;3.63;;;2.13;;
44165;SDS011;30476;53.468;9.826;2023-05-27T02:56:55;5.47;;;2.47;;
44165;SDS011;30476;53.468;9.826;2023-05-27T02:59:21;8.70;;;2.70;;
44165;SDS011;30476;53.468;9.826;2023-05-27T03:01:47;3.00;;;2.27;;
44165;SDS011;30476;53.468;9.826;2023-05-27T03:04:12;4.13;;;1.93;;
44165;SDS011;30476;53.468;9.826;2023-05-27T03:06:38;3.27;;;2.00;;
44165;SDS011;30476;53.468;9.826;2023-05-27T03:09:04;5.90;;;3.80;;
44165;SDS011;30476;53.468;9.826;2023-05-27T03:11:30;3.77;;;2.17;;
44165;SDS011;30476;53.468;9.826;2023-05-27T03:13:55;6.70;;;2.40;;
44165;SDS011;30476;53.468;9.826;2023-05-27T03:16:21;7.63;;;2.93;;
44165;SDS011;30476;53.468;9.826;2023-05-27T03:18:48;5.13;;;2.60;;
44165;SDS011;30476;53.468;9.826;2023-05-27T03:21:13;5.17;;;2.70;;
44165;SDS011;30476;53.468;9.826;2023-05-27T03:23:40;6.33;;;2.57;;
44165;SDS011;30476;53.468;9.826;2023-05-27T03:26:05;6.97;;;3.00;;
44165;SDS011;30476;53.468;9.826;2023-05-27T03:28:31;5.00;;;2.30;;
44165;SDS011;30476;53.468;9.826;2023-05-27T03:30:57;8.23;;;2.20;;
44165;SDS011;30476;53.468;9.826;2023-05-27T03:33:23;2.70;;;2.13;;
44165;SDS011;30476;53.468;9.826;2023-05-27T03:35:49;4.33;;;2.23;;
44165;SDS011;30476;53.468;9.826;2023-05-27T03:38:15;4.90;;;2.27;;
44165;SDS011;30476;53.468;9.826;2023-05-27T03:40:41;6.10;;;2.10;;
44165;SDS011;30476;53.468;9.826;2023-05-27T03:43:06;2.90;;;2.53;;
44165;SDS011;30476;53.468;9.826;2023-05-27T03:45:32;7.70;;;2.07;;
44165;SDS011;30476;53.468;9.826;2023-05-27T03:47:58;6.30;;;1.97;;
44165;SDS011;30476;53.468;9.826;2023-05-27T03:50:23;3.47;;;2.40;;
44165;SDS011;30476;53.468;9.826;2023-05-27T03:52:49;10.03;;;3.40;;
44165;SDS011;30476;53.468;9.826;2023-05-27T03:55:15;5.47;;;1.97;;
44165;SDS011;30476;53.468;9.826;2023-05-27T03:57:42;3.90;;;1.80;;
44165;SDS011;30476;53.468;9.826;2023-05-27T04:00:08;3.57;;;2.13;;
44165;SDS011;30476;53.468;9.826;2023-05-27T04:02:37;5.03;;;2.80;;
44165;SDS011;30476;53.468;9.826;2023-05-27T04:05:04;4.83;;;2.33;;
44165;SDS011;30476;53.468;9.826;2023-05-27T04:07:30;3.60;;;2.27;;
44165;SDS011;30476;53.468;9.826;2023-05-27T04:09:56;5.27;;;2.23;;
44165;SDS011;30476;53.468;9.826;2023-05-27T04:12:23;10.20;;;2.40;;
44165;SDS011;30476;53.468;9.826;2023-05-27T04:14:49;3.90;;;2.43;;
44165;SDS011;30476;53.468;9.826;2023-05-27T04:17:15;4.87;;;2.17;;
44165;SDS011;30476;53.468;9.826;2023-05-27T04:19:42;5.27;;;3.23;;
44165;SDS011;30476;53.468;9.826;2023-05-27T04:22:08;7.43;;;2.63;;
44165;SDS011;30476;53.468;9.826;2023-05-27T04:24:34;5.77;;;3.03;;
44165;SDS011;30476;53.468;9.826;2023-05-27T04:27:00;3.30;;;2.20;;
44165;SDS011;30476;53.468;9.826;2023-05-27T04:29:27;5.30;;;2.13;;
44165;SDS011;30476;53.468;9.826;2023-05-27T04:31:54;5.17;;;2.33;;
44165;SDS011;30476;53.468;9.826;2023-05-27T04:34:21;5.33;;;2.90;;
44165;SDS011;30476;53.468;9.826;2023-05-27T04:36:47;5.43;;;2.73;;
44165;SDS011;30476;53.468;9.826;2023-05-27T04:39:15;5.40;;;2.40;;
44165;SDS011;30476;53.468;9.826;2023-05-27T04:41:41;7.90;;;2.70;;
44165;SDS011;30476;53.468;9.826;2023-05-27T04:44:08;4.77;;;2.47;;
44165;SDS011;30476;53.468;9.826;2023-05-27T04:46:34;8.13;;;3.17;;
44165;SDS011;30476;53.468;9.826;2023-05-27T04:49:00;5.63;;;2.03;;
44165;SDS011;30476;53.468;9.826;2023-05-27T04:51:26;8.47;;;2.60;;
44165;SDS011;30476;53.468;9.826;2023-05-27T04:53:52;5.40;;;3.47;;
44165;SDS011;30476;53.468;9.826;2023-05-27T04:56:19;6.33;;;2.97;;
44165;SDS011;30476;53.468;9.826;2023-05-27T04:58:45;8.63;;;4.17;;
44165;SDS011;30476;53.468;9.826;2023-05-27T05:01:14;6.00;;;3.07;;
44165;SDS011;30476;53.468;9.826;2023-05-27T05:03:45;8.73;;;3.33;;
44165;SDS011;30476;53.468;9.826;2023-05-27T05:06:28;9.10;;;3.37;;
44165;SDS011;30476;53.468;9.826;2023-05-27T05:08:54;8.17;;;3.83;;
44165;SDS011;30476;53.468;9.826;2023-05-27T05:11:19;9.90;;;4.83;;
44165;SDS011;30476;53.468;9.826;2023-05-27T05:13:46;10.97;;;3.23;;
44165;SDS011;30476;53.468;9.826;2023-05-27T05:16:12;9.50;;;5.63;;
44165;SDS011;30476;53.468;9.826;2023-05-27T05:18:38;7.93;;;5.07;;
44165;SDS011;30476;53.468;9.826;2023-05-27T05:21:03;10.10;;;4.20;;
44165;SDS011;30476;53.468;9.826;2023-05-27T05:23:29;10.93;;;4.60;;
44165;SDS011;30476;53.468;9.826;2023-05-27T05:25:55;11.63;;;4.57;;
44165;SDS011;30476;53.468;9.826;2023-05-27T05:28:23;13.30;;;5.50;;
44165;SDS011;30476;53.468;9.826;2023-05-27T05:30:49;10.87;;;4.70;;
44165;SDS011;30476;53.468;9.826;2023-05-27T05:33:15;11.07;;;4.17;;
44165;SDS011;30476;53.468;9.826;2023-05-27T05:35:41;10.50;;;4.10;;
44165;SDS011;30476;53.468;9.826;2023-05-27T05:38:07;6.53;;;3.83;;
44165;SDS011;30476;53.468;9.826;2023-05-27T05:40:32;10.77;;;4.20;;
44165;SDS011;30476;53.468;9.826;2023-05-27T05:42:58;9.10;;;4.10;;
44165;SDS011;30476;53.468;9.826;2023-05-27T05:45:24;7.10;;;3.90;;
44165;SDS011;30476;53.468;9.826;2023-05-27T05:47:50;8.50;;;4.40;;
44165;SDS011;30476;53.468;9.826;2023-05-27T05:50:16;12.67;;;4.80;;
44165;SDS011;30476;53.468;9.826;2023-05-27T05:52:42;8.27;;;3.93;;
44165;SDS011;30476;53.468;9.826;2023-05-27T05:55:08;7.60;;;4.50;;
44165;SDS011;30476;53.468;9.826;2023-05-27T05:57:34;11.43;;;4.20;;
44165;SDS011;30476;53.468;9.826;2023-05-27T06:00:00;12.90;;;4.50;;
44165;SDS011;30476;53.468;9.826;2023-05-27T06:02:25;8.90;;;4.57;;
44165;SDS011;30476;53.468;9.826;2023-05-27T06:04:51;9.10;;;4.50;;
44165;SDS011;30476;53.468;9.826;2023-05-27T06:07:17;12.33;;;4.70;;
44165;SDS011;30476;53.468;9.826;2023-05-27T06:09:42;12.43;;;4.80;;
44165;SDS011;30476;53.468;9.826;2023-05-27T06:12:08;13.67;;;6.13;;
44165;SDS011;30476;53.468;9.826;2023-05-27T06:14:34;13.30;;;5.30;;
44165;SDS011;30476;53.468;9.826;2023-05-27T06:17:00;18.03;;;5.37;;
44165;SDS011;30476;53.468;9.826;2023-05-27T06:19:26;7.63;;;5.10;;
44165;SDS011;30476;53.468;9.826;2023-05-27T06:21:51;8.00;;;5.13;;
44165;SDS011;30476;53.468;9.826;2023-05-27T06:24:17;10.23;;;4.93;;
44165;SDS011;30476;53.468;9.826;2023-05-27T06:26:44;15.30;;;5.83;;
44165;SDS011;30476;53.468;9.826;2023-05-27T06:29:10;7.97;;;4.27;;
44165;SDS011;30476;53.468;9.826;2023-05-27T06:31:36;12.73;;;4.90;;
44165;SDS011;30476;53.468;9.826;2023-05-27T06:34:02;9.27;;;4.77;;
44165;SDS011;30476;53.468;9.826;2023-05-27T06:36:27;7.50;;;6.10;;
44165;SDS011;30476;53.468;9.826;2023-05-27T06:38:53;14.30;;;4.47;;
44165;SDS011;30476;53.468;9.826;2023-05-27T06:41:19;8.57;;;5.17;;
44165;SDS011;30476;53.468;9.826;2023-05-27T06:43:45;14.17;;;4.40;;
44165;SDS011;30476;53.468;9.826;2023-05-27T06:46:11;8.07;;;5.20;;
44165;SDS011;30476;53.468;9.826;2023-05-27T06:48:36;12.63;;;4.60;;
44165;SDS011;30476;53.468;9.826;2023-05-27T06:51:02;9.90;;;4.30;;
44165;SDS011;30476;53.468;9.826;2023-05-27T06:53:28;9.50;;;5.60;;
44165;SDS011;30476;53.468;9.826;2023-05-27T06:55:54;15.97;;;4.70;;
44165;SDS011;30476;53.468;9.826;2023-05-27T06:58:20;13.50;;;4.73;;
44165;SDS011;30476;53.468;9.826;2023-05-27T07:00:46;10.23;;;4.87;;
44165;SDS011;30476;53.468;9.826;2023-05-27T07:03:12;15.63;;;5.20;;
44165;SDS011;30476;53.468;9.826;2023-05-27T07:05:38;7.90;;;4.13;;
44165;SDS011;30476;53.468;9.826;2023-05-27T07:08:04;12.03;;;4.53;;
44165;SDS011;30476;53.468;9.826;2023-05-27T07:10:30;9.63;;;4.13;;
44165;SDS011;30476;53.468;9.826;2023-05-27T07:12:56;9.13;;;4.00;;
44165;SDS011;30476;53.468;9.826;2023-05-27T07:15:22;8.70;;;4.60;;
44165;SDS011;30476;53.468;9.826;2023-05-27T07:17:48;10.73;;;4.47;;
44165;SDS011;30476;53.468;9.826;2023-05-27T07:20:13;8.50;;;4.47;;
44165;SDS011;30476;53.468;9.826;2023-05-27T07:22:39;7.93;;;5.30;;
44165;SDS011;30476;53.468;9.826;2023-05-27T07:25:05;9.67;;;4.20;;
44165;SDS011;30476;53.468;9.826;2023-05-27T07:27:31;7.77;;;4.50;;
44165;SDS011;30476;53.468;9.826;2023-05-27T07:29:57;12.87;;;5.07;;
44165;SDS011;30476;53.468;9.826;2023-05-27T07:32:23;10.57;;;4.60;;
44165;SDS011;30476;53.468;9.826;2023-05-27T07:34:48;11.27;;;4.50;;
44165;SDS011;30476;53.468;9.826;2023-05-27T07:37:15;7.27;;;4.83;;
44165;SDS011;30476;53.468;9.826;2023-05-27T07:39:41;7.23;;;3.83;;
44165;SDS011;30476;53.468;9.826;2023-05-27T07:42:06;7.50;;;5.10;;
44165;SDS011;30476;53.468;9.826;2023-05-27T07:44:32;8.27;;;4.53;;
44165;SDS011;30476;53.468;9.826;2023-05-27T07:46:58;9.63;;;4.23;;
44165;SDS011;30476;53.468;9.826;2023-05-27T07:49:25;5.60;;;3.33;;
44165;SDS011;30476;53.468;9.826;2023-05-27T07:51:51;7.43;;;3.70;;
44165;SDS011;30476;53.468;9.826;2023-05-27T07:54:17;8.70;;;3.87;;
44165;SDS011;30476;53.468;9.826;2023-05-27T07:56:42;7.30;;;3.20;;
44165;SDS011;30476;53.468;9.826;2023-05-27T07:59:08;5.60;;;4.17;;
44165;SDS011;30476;53.468;9.826;2023-05-27T08:01:34;8.90;;;4.47;;
44165;SDS011;30476;53.468;9.826;2023-05-27T08:04:00;5.30;;;3.40;;
44165;SDS011;30476;53.468;9.826;2023-05-27T08:06:26;8.47;;;3.43;;
44165;SDS011;30476;53.468;9.826;2023-05-27T08:08:52;7.03;;;3.70;;
44165;SDS011;30476;53.468;9.826;2023-05-27T08:11:17;7.83;;;5.30;;
44165;SDS011;30476;53.468;9.826;2023-05-27T08:13:44;11.23;;;3.50;;
44165;SDS011;30476;53.468;9.826;2023-05-27T08:16:09;9.00;;;3.87;;
44165;SDS011;30476;53.468;9.826;2023-05-27T08:18:36;6.30;;;3.87;;
44165;SDS011;30476;53.468;9.826;2023-05-27T08:21:02;6.90;;;3.80;;
44165;SDS011;30476;53.468;9.826;2023-05-27T08:23:28;6.80;;;3.53;;
44165;SDS011;30476;53.468;9.826;2023-05-27T08:25:54;10.97;;;4.63;;
44165;SDS011;30476;53.468;9.826;2023-05-27T08:28:20;9.00;;;3.30;;
44165;SDS011;30476;53.468;9.826;2023-05-27T08:30:46;13.03;;;4.80;;
44165;SDS011;30476;53.468;9.826;2023-05-27T08:33:12;7.00;;;3.40;;
44165;SDS011;30476;53.468;9.826;2023-05-27T08:35:38;7.23;;;3.27;;
44165;SDS011;30476;53.468;9.826;2023-05-27T08:38:04;7.30;;;3.70;;
44165;SDS011;30476;53.468;9.826;2023-05-27T08:40:30;10.00;;;3.83;;
44165;SDS011;30476;53.468;9.826;2023-05-27T08:42:55;8.77;;;3.50;;
44165;SDS011;30476;53.468;9.826;2023-05-27T08:45:21;8.20;;;3.80;;
44165;SDS011;30476;53.468;9.826;2023-05-27T08:47:47;8.63;;;3.40;;
44165;SDS011;30476;53.468;9.826;2023-05-27T08:50:14;6.87;;;3.67;;
44165;SDS011;30476;53.468;9.826;2023-05-27T08:52:46;12.60;;;4.00;;
44165;SDS011;30476;53.468;9.826;2023-05-27T08:55:15;10.50;;;3.63;;
44165;SDS011;30476;53.468;9.826;2023-05-27T08:57:46;6.20;;;3.90;;
44165;SDS011;30476;53.468;9.826;2023-05-27T09:00:15;8.57;;;4.03;;
44165;SDS011;30476;53.468;9.826;2023-05-27T09:02:42;7.70;;;4.97;;
44165;SDS011;30476;53.468;9.826;2023-05-27T09:05:11;9.17;;;3.63;;
44165;SDS011;30476;53.468;9.826;2023-05-27T09:07:38;9.93;;;4.07;;
44165;SDS011;30476;53.468;9.826;2023-05-27T09:10:05;7.90;;;3.63;;
44165;SDS011;30476;53.468;9.826;2023-05-27T09:12:34;8.47;;;4.40;;
44165;SDS011;30476;53.468;9.826;2023-05-27T09:15:02;10.00;;;4.43;;
44165;SDS011;30476;53.468;9.826;2023-05-27T09:17:29;8.23;;;3.93;;
44165;SDS011;30476;53.468;9.826;2023-05-27T09:19:55;8.00;;;4.00;;
44165;SDS011;30476;53.468;9.826;2023-05-27T09:22:24;7.43;;;3.40;;
44165;SDS011;30476;53.468;9.826;2023-05-27T09:24:53;10.33;;;4.40;;
44165;SDS011;30476;53.468;9.826;2023-05-27T09:27:23;6.90;;;3.10;;
44165;SDS011;30476;53.468;9.826;2023-05-27T09:29:53;11.50;;;4.07;;
44165;SDS011;30476;53.468;9.826;2023-05-27T09:32:26;7.10;;;3.40;;
44165;SDS011;30476;53.468;9.826;2023-05-27T09:34:53;6.50;;;4.07;;
44165;SDS011;30476;53.468;9.826;2023-05-27T09:37:20;7.30;;;4.20;;
44165;SDS011;30476;53.468;9.826;2023-05-27T09:42:43;7.13;;;4.07;;
44165;SDS011;30476;53.468;9.826;2023-05-27T09:45:16;10.40;;;4.10;;
44165;SDS011;30476;53.468;9.826;2023-05-27T09:47:46;7.30;;;3.60;;
44165;SDS011;30476;53.468;9.826;2023-05-27T09:50:13;10.13;;;3.93;;
44165;SDS011;30476;53.468;9.826;2023-05-27T09:52:40;7.60;;;4.57;;
44165;SDS011;30476;53.468;9.826;2023-05-27T09:55:09;12.37;;;4.73;;
44165;SDS011;30476;53.468;9.826;2023-05-27T09:57:37;6.20;;;5.13;;
44165;SDS011;30476;53.468;9.826;2023-05-27T10:00:03;6.43;;;3.47;;
44165;SDS011;30476;53.468;9.826;2023-05-27T10:02:36;8.23;;;5.60;;
44165;SDS011;30476;53.468;9.826;2023-05-27T10:05:04;8.90;;;5.10;;
44165;SDS011;30476;53.468;9.826;2023-05-27T10:07:36;5.90;;;4.30;;
44165;SDS011;30476;53.468;9.826;2023-05-27T10:10:10;17.70;;;5.00;;
44165;SDS011;30476;53.468;9.826;2023-05-27T10:12:38;11.60;;;5.30;;
44165;SDS011;30476;53.468;9.826;2023-05-27T10:15:05;9.17;;;4.93;;
44165;SDS011;30476;53.468;9.826;2023-05-27T10:17:47;9.10;;;4.30;;
44165;SDS011;30476;53.468;9.826;2023-05-27T10:20:24;10.87;;;3.73;;
44165;SDS011;30476;53.468;9.826;2023-05-27T10:22:54;11.13;;;4.90;;
44165;SDS011;30476;53.468;9.826;2023-05-27T10:25:22;8.97;;;4.60;;
44165;SDS011;30476;53.468;9.826;2023-05-27T10:27:48;9.33;;;5.20;;
44165;SDS011;30476;53.468;9.826;2023-05-27T10:30:14;4.87;;;3.67;;
44165;SDS011;30476;53.468;9.826;2023-05-27T10:32:46;7.87;;;4.07;;
44165;SDS011;30476;53.468;9.826;2023-05-27T10:35:16;5.57;;;3.67;;
44165;SDS011;30476;53.468;9.826;2023-05-27T10:37:43;6.43;;;4.00;;
44165;SDS011;30476;53.468;9.826;2023-05-27T10:40:09;11.90;;;4.50;;
44165;SDS011;30476;53.468;9.826;2023-05-27T10:42:35;7.30;;;4.40;;
44165;SDS011;30476;53.468;9.826;2023-05-27T10:45:03;8.17;;;4.03;;
44165;SDS011;30476;53.468;9.826;2023-05-27T10:47:30;6.27;;;4.30;;
44165;SDS011;30476;53.468;9.826;2023-05-27T10:49:59;6.03;;;3.97;;
44165;SDS011;30476;53.468;9.826;2023-05-27T10:52:38;7.30;;;3.70;;
44165;SDS011;30476;53.468;9.826;2023-05-27T10:55:05;5.50;;;3.87;;
44165;SDS011;30476;53.468;9.826;2023-05-27T10:57:34;7.40;;;3.73;;
44165;SDS011;30476;53.468;9.826;2023-05-27T11:00:02;5.57;;;3.77;;
44165;SDS011;30476;53.468;9.826;2023-05-27T11:02:30;7.73;;;4.43;;
44165;SDS011;30476;53.468;9.826;2023-05-27T11:05:08;5.57;;;4.03;;
44165;SDS011;30476;53.468;9.826;2023-05-27T11:07:39;7.00;;;4.03;;
44165;SDS011;30476;53.468;9.826;2023-05-27T11:10:05;9.07;;;4.73;;
44165;SDS011;30476;53.468;9.826;2023-05-27T11:12:32;5.57;;;3.50;;
44165;SDS011;30476;53.468;9.826;2023-05-27T11:14:58;6.00;;;4.07;;
44165;SDS011;30476;53.468;9.826;2023-05-27T11:17:24;5.33;;;3.80;;
44165;SDS011;30476;53.468;9.826;2023-05-27T11:19:53;6.50;;;4.37;;
44165;SDS011;30476;53.468;9.826;2023-05-27T11:22:20;4.40;;;3.30;;
44165;SDS011;30476;53.468;9.826;2023-05-27T11:27:41;6.47;;;3.43;;
44165;SDS011;30476;53.468;9.826;2023-05-27T11:30:10;8.43;;;3.90;;
44165;SDS011;30476;53.468;9.826;2023-05-27T11:32:37;6.43;;;4.00;;
44165;SDS011;30476;53.468;9.826;2023-05-27T11:35:03;4.97;;;4.00;;
44165;SDS011;30476;53.468;9.826;2023-05-27T11:37:31;9.80;;;4.13;;
44165;SDS011;30476;53.468;9.826;2023-05-27T11:39:57;7.67;;;4.30;;
44165;SDS011;30476;53.468;9.826;2023-05-27T11:42:23;6.77;;;4.30;;
44165;SDS011;30476;53.468;9.826;2023-05-27T11:44:50;8.70;;;3.83;;
44165;SDS011;30476;53.468;9.826;2023-05-27T11:47:17;6.07;;;3.53;;
44165;SDS011;30476;53.468;9.826;2023-05-27T11:49:43;6.70;;;4.13;;
44165;SDS011;30476;53.468;9.826;2023-05-27T11:52:10;5.97;;;4.47;;
44165;SDS011;30476;53.468;9.826;2023-05-27T11:54:37;6.20;;;3.87;;
44165;SDS011;30476;53.468;9.826;2023-05-27T11:57:04;5.57;;;3.40;;
44165;SDS011;30476;53.468;9.826;2023-05-27T11:59:33;6.97;;;4.03;;
44165;SDS011;30476;53.468;9.826;2023-05-27T12:02:00;8.23;;;5.03;;
44165;SDS011;30476;53.468;9.826;2023-05-27T12:04:25;6.23;;;4.13;;
44165;SDS011;30476;53.468;9.826;2023-05-27T12:06:51;4.57;;;4.10;;
44165;SDS011;30476;53.468;9.826;2023-05-27T12:09:17;8.90;;;4.60;;
44165;SDS011;30476;53.468;9.826;2023-05-27T12:11:43;10.20;;;4.10;;
44165;SDS011;30476;53.468;9.826;2023-05-27T12:14:08;6.47;;;3.90;;
44165;SDS011;30476;53.468;9.826;2023-05-27T12:16:34;9.23;;;5.20;;
44165;SDS011;30476;53.468;9.826;2023-05-27T12:19:00;4.50;;;3.83;;
44165;SDS011;30476;53.468;9.826;2023-05-27T12:21:26;4.70;;;4.30;;
44165;SDS011;30476;53.468;9.826;2023-05-27T12:23:52;9.03;;;4.60;;
44165;SDS011;30476;53.468;9.826;2023-05-27T12:26:17;6.17;;;4.37;;
44165;SDS011;30476;53.468;9.826;2023-05-27T12:28:43;6.70;;;4.00;;
44165;SDS011;30476;53.468;9.826;2023-05-27T12:31:11;6.60;;;4.53;;
44165;SDS011;30476;53.468;9.826;2023-05-27T12:33:37;6.37;;;4.33;;
44165;SDS011;30476;53.468;9.826;2023-05-27T12:36:03;9.07;;;4.87;;
44165;SDS011;30476;53.468;9.826;2023-05-27T12:38:30;7.60;;;4.20;;
44165;SDS011;30476;53.468;9.826;2023-05-27T12:40:57;9.90;;;4.37;;
44165;SDS011;30476;53.468;9.826;2023-05-27T12:43:23;9.23;;;5.50;;
44165;SDS011;30476;53.468;9.826;2023-05-27T12:45:49;6.03;;;4.30;;
44165;SDS011;30476;53.468;9.826;2023-05-27T12:48:15;7.73;;;4.70;;
44165;SDS011;30476;53.468;9.826;2023-05-27T12:50:42;6.90;;;4.50;;
44165;SDS011;30476;53.468;9.826;2023-05-27T12:53:09;7.17;;;4.20;;
44165;SDS011;30476;53.468;9.826;2023-05-27T12:55:35;7.03;;;3.70;;
44165;SDS011;30476;53.468;9.826;2023-05-27T12:58:02;9.97;;;4.20;;
44165;SDS011;30476;53.468;9.826;2023-05-27T13:00:28;7.63;;;4.77;;
44165;SDS011;30476;53.468;9.826;2023-05-27T13:02:54;6.60;;;4.00;;
44165;SDS011;30476;53.468;9.826;2023-05-27T13:05:20;12.30;;;4.30;;
44165;SDS011;30476;53.468;9.826;2023-05-27T13:07:52;8.03;;;4.43;;
44165;SDS011;30476;53.468;9.826;2023-05-27T13:10:23;10.10;;;4.80;;
44165;SDS011;30476;53.468;9.826;2023-05-27T13:12:49;5.83;;;3.60;;
44165;SDS011;30476;53.468;9.826;2023-05-27T13:15:15;11.03;;;4.70;;
44165;SDS011;30476;53.468;9.826;2023-05-27T13:17:42;7.30;;;4.50;;
44165;SDS011;30476;53.468;9.826;2023-05-27T13:20:11;6.50;;;3.60;;
44165;SDS011;30476;53.468;9.826;2023-05-27T13:22:38;6.07;;;4.00;;
44165;SDS011;30476;53.468;9.826;2023-05-27T13:25:05;6.70;;;4.70;;
44165;SDS011;30476;53.468;9.826;2023-05-27T13:27:32;6.53;;;4.50;;
44165;SDS011;30476;53.468;9.826;2023-05-27T13:29:58;9.03;;;4.30;;
44165;SDS011;30476;53.468;9.826;2023-05-27T13:32:23;7.50;;;4.10;;
44165;SDS011;30476;53.468;9.826;2023-05-27T13:34:49;5.63;;;4.83;;
44165;SDS011;30476;53.468;9.826;2023-05-27T13:37:17;8.30;;;3.80;;
44165;SDS011;30476;53.468;9.826;2023-05-27T13:39:43;7.33;;;4.43;;
44165;SDS011;30476;53.468;9.826;2023-05-27T13:42:09;5.23;;;4.07;;
44165;SDS011;30476;53.468;9.826;2023-05-27T13:44:35;6.30;;;3.93;;
44165;SDS011;30476;53.468;9.826;2023-05-27T13:47:01;6.87;;;4.70;;
44165;SDS011;30476;53.468;9.826;2023-05-27T13:49:27;8.83;;;4.70;;
44165;SDS011;30476;53.468;9.826;2023-05-27T13:51:53;7.03;;;4.67;;
44165;SDS011;30476;53.468;9.826;2023-05-27T13:54:18;5.17;;;4.27;;
44165;SDS011;30476;53.468;9.826;2023-05-27T13:56:44;5.77;;;4.10;;
44165;SDS011;30476;53.468;9.826;2023-05-27T13:59:10;9.53;;;3.87;;
44165;SDS011;30476;53.468;9.826;2023-05-27T14:01:38;9.77;;;4.80;;
44165;SDS011;30476;53.468;9.826;2023-05-27T14:04:04;10.00;;;4.83;;
44165;SDS011;30476;53.468;9.826;2023-05-27T14:06:30;5.63;;;3.57;;
44165;SDS011;30476;53.468;9.826;2023-05-27T14:08:56;7.03;;;4.63;;
44165;SDS011;30476;53.468;9.826;2023-05-27T14:11:22;7.80;;;4.47;;
44165;SDS011;30476;53.468;9.826;2023-05-27T14:13:48;11.77;;;5.07;;
44165;SDS011;30476;53.468;9.826;2023-05-27T14:16:15;6.93;;;3.80;;
44165;SDS011;30476;53.468;9.826;2023-05-27T14:18:41;8.53;;;4.50;;
44165;SDS011;30476;53.468;9.826;2023-05-27T14:21:08;5.63;;;3.90;;
44165;SDS011;30476;53.468;9.826;2023-05-27T14:23:34;6.23;;;4.23;;
44165;SDS011;30476;53.468;9.826;2023-05-27T14:26:00;4.90;;;4.13;;
44165;SDS011;30476;53.468;9.826;2023-05-27T14:28:26;5.23;;;4.10;;
44165;SDS011;30476;53.468;9.826;2023-05-27T14:30:52;7.37;;;4.27;;
44165;SDS011;30476;53.468;9.826;2023-05-27T14:33:18;5.23;;;3.93;;
44165;SDS011;30476;53.468;9.826;2023-05-27T14:35:44;7.00;;;4.10;;
44165;SDS011;30476;53.468;9.826;2023-05-27T14:38:11;7.60;;;4.60;;
44165;SDS011;30476;53.468;9.826;2023-05-27T14:40:38;6.60;;;4.33;;
44165;SDS011;30476;53.468;9.826;2023-05-27T14:43:04;7.57;;;5.40;;
44165;SDS011;30476;53.468;9.826;2023-05-27T14:45:30;5.70;;;3.73;;
44165;SDS011;30476;53.468;9.826;2023-05-27T14:47:57;5.30;;;3.77;;
44165;SDS011;30476;53.468;9.826;2023-05-27T14:50:23;6.20;;;3.70;;
44165;SDS011;30476;53.468;9.826;2023-05-27T14:52:49;6.37;;;4.27;;